Time;durP1;ratioP1;P1;durP2;ratioP2;P2;SDS_P1;SDS_P2;PMS_P1;PMS_P2;Temp;Humidity;BMP_temperature;BMP_pressure;BME280_temperature;BME280_humidity;BME280_pressure;Samples;Min_cycle;Max_cycle;Signal;HPM_P1;HPM_P2
2023/05/19 00:00:35;;;;;;;59.05;55.90;;;;;;;19.00;39.79;102538.53;5023546;28;20042;-67
2023/05/19 00:03:02;;;;;;;60.20;56.70;;;;;;;18.96;40.00;102538.19;5014694;28;20398;-68
2023/05/19 00:05:29;;;;;;;61.00;57.60;;;;;;;18.94;39.49;102537.63;5037888;28;20049;-68
2023/05/19 00:07:58;;;;;;;58.78;55.65;;;;;;;18.92;39.68;102541.69;5017647;28;20392;-68
2023/05/19 00:10:26;;;;;;;59.75;56.25;;;;;;;18.90;39.90;102541.13;5029513;28;20097;-68
2023/05/19 00:12:52;;;;;;;57.72;54.30;;;;;;;18.88;40.02;102532.38;5013212;28;20497;-68
2023/05/19 00:15:18;;;;;;;58.90;55.40;;;;;;;18.85;40.11;102530.09;5034923;28;20042;-68
2023/05/19 00:17:43;;;;;;;60.45;57.25;;;;;;;18.81;40.07;102527.88;5012431;28;20044;-67
2023/05/19 00:20:10;;;;;;;57.95;54.95;;;;;;;18.77;40.27;102518.56;5020102;28;20042;-67
2023/05/19 00:22:36;;;;;;;59.63;56.42;;;;;;;18.75;40.01;102522.59;5034755;28;20039;-69
2023/05/19 00:25:02;;;;;;;56.78;53.63;;;;;;;18.72;40.14;102518.44;5019301;28;20037;-68
2023/05/19 00:27:27;;;;;;;54.42;51.65;;;;;;;18.70;39.98;102519.78;5030569;28;20029;-73
2023/05/19 00:29:52;;;;;;;56.85;53.67;;;;;;;18.67;40.27;102518.38;5031724;28;20496;-68
2023/05/19 00:32:18;;;;;;;56.05;52.72;;;;;;;18.65;40.21;102515.06;5046667;28;20064;-68
2023/05/19 00:34:43;;;;;;;56.80;53.47;;;;;;;18.62;40.43;102507.34;5012680;28;20496;-68
2023/05/19 00:37:09;;;;;;;57.90;55.10;;;;;;;18.58;40.46;102504.31;5011223;28;20080;-68
2023/05/19 00:39:34;;;;;;;59.17;56.05;;;;;;;18.56;40.00;102513.84;5017633;28;20131;-68
2023/05/19 00:41:59;;;;;;;58.08;54.78;;;;;;;18.53;40.55;102511.63;5025141;28;20045;-67
2023/05/19 00:44:25;;;;;;;56.80;53.65;;;;;;;18.51;40.38;102511.03;5012443;28;20385;-69
2023/05/19 00:46:50;;;;;;;56.47;53.30;;;;;;;18.48;40.50;102512.38;5016247;28;20038;-68
2023/05/19 00:49:16;;;;;;;56.08;53.28;;;;;;;18.45;40.55;102512.06;5039538;28;20405;-67
2023/05/19 00:51:41;;;;;;;57.80;54.15;;;;;;;18.42;40.83;102513.41;5027362;28;20108;-68
2023/05/19 00:54:07;;;;;;;53.38;50.38;;;;;;;18.40;40.88;102510.09;5023288;28;20084;-69
2023/05/19 00:56:33;;;;;;;55.42;52.58;;;;;;;18.37;40.72;102510.59;5030605;28;20116;-67
2023/05/19 00:58:59;;;;;;;53.97;51.22;;;;;;;18.35;40.90;102507.28;5031171;28;20508;-68
2023/05/19 01:01:25;;;;;;;56.90;53.88;;;;;;;18.31;41.00;102508.84;5031060;28;20040;-69
2023/05/19 01:03:51;;;;;;;52.55;49.50;;;;;;;18.28;40.87;102501.97;5043098;28;20041;-68
2023/05/19 01:06:17;;;;;;;53.80;50.55;;;;;;;18.26;40.96;102512.31;5016569;28;20506;-68
2023/05/19 01:08:43;;;;;;;53.30;50.58;;;;;;;18.23;40.83;102509.28;5011241;28;20149;-68
2023/05/19 01:11:09;;;;;;;53.65;50.78;;;;;;;18.20;41.25;102509.78;5012046;28;20111;-68
2023/05/19 01:13:35;;;;;;;53.58;50.83;;;;;;;18.17;40.87;102513.84;5029155;28;20149;-68
2023/05/19 01:16:11;;;;;;;52.75;49.72;;;;;;;18.15;41.32;102516.00;5025013;28;20030;-68
2023/05/19 01:18:54;;;;;;;54.13;50.40;;;;;;;18.12;40.96;102517.34;5011474;28;20063;-68
2023/05/19 01:21:35;;;;;;;54.30;51.50;;;;;;;18.09;41.09;102511.53;5023483;28;20038;-68
2023/05/19 01:24:22;;;;;;;53.25;50.65;;;;;;;18.04;41.30;102511.44;5032922;28;20041;-67
2023/05/19 01:27:15;;;;;;;53.28;50.58;;;;;;;18.01;41.33;102504.56;5012406;28;20034;-68
2023/05/19 01:30:09;;;;;;;50.65;47.78;;;;;;;17.97;41.18;102505.31;5011476;28;20030;-68
2023/05/19 01:32:35;;;;;;;52.63;49.60;;;;;;;17.93;41.48;102503.09;5007698;28;20053;-68
2023/05/19 01:35:04;;;;;;;50.00;47.55;;;;;;;17.91;41.40;102507.16;5035345;28;20127;-68
2023/05/19 01:37:30;;;;;;;52.47;49.50;;;;;;;17.89;41.43;102501.09;5023317;28;20113;-68
2023/05/19 01:39:56;;;;;;;53.17;50.42;;;;;;;17.86;41.48;102498.88;5012863;28;20058;-69
2023/05/19 01:42:22;;;;;;;52.08;48.95;;;;;;;17.83;41.55;102493.91;5027500;28;20068;-68
2023/05/19 01:44:47;;;;;;;53.10;50.33;;;;;;;17.81;41.67;102502.34;5044112;28;20070;-68
2023/05/19 01:47:13;;;;;;;51.45;48.50;;;;;;;17.79;41.48;102500.91;5019457;28;20072;-68
2023/05/19 01:49:38;;;;;;;52.22;49.47;;;;;;;17.76;41.72;102493.19;5023915;28;20115;-68
2023/05/19 01:52:04;;;;;;;51.88;49.10;;;;;;;17.72;41.34;102499.16;5026398;28;20037;-68
2023/05/19 01:54:30;;;;;;;49.55;47.05;;;;;;;17.71;41.56;102492.06;5028131;28;20448;-68
2023/05/19 01:57:31;;;;;;;49.50;47.10;;;;;;;17.67;41.74;102490.88;5013064;28;20045;-69
2023/05/19 02:00:06;;;;;;;49.10;46.35;;;;;;;17.65;42.00;102494.94;5013344;28;20053;-67
2023/05/19 02:02:42;;;;;;;50.70;48.10;;;;;;;17.62;41.78;102489.97;5011814;28;20113;-67
2023/05/19 02:05:37;;;;;;;49.70;47.10;;;;;;;17.59;42.10;102490.44;5029836;28;20025;-67
2023/05/19 02:08:16;;;;;;;48.97;46.08;;;;;;;17.55;41.86;102490.13;5010493;28;20057;-67
2023/05/19 02:10:48;;;;;;;50.83;48.13;;;;;;;17.51;41.75;102489.81;5033180;28;20022;-67
2023/05/19 02:13:17;;;;;;;53.75;50.67;;;;;;;17.49;41.88;102491.94;5014628;28;20030;-66
2023/05/19 02:15:44;;;;;;;;;;;;;;;17.46;41.98;102489.72;5024180;28;20041;-67
2023/05/19 02:18:10;;;;;;;48.42;45.72;;;;;;;17.44;41.91;102488.31;5047248;28;19913;-67
2023/05/19 02:20:37;;;;;;;48.28;45.47;;;;;;;17.41;41.82;102486.91;5027806;28;20414;-67
2023/05/19 02:23:03;;;;;;;47.80;45.38;;;;;;;17.38;42.00;102489.28;5014869;28;20034;-69
2023/05/19 02:25:28;;;;;;;49.53;46.83;;;;;;;17.36;42.21;102485.97;5021771;28;20458;-67
2023/05/19 02:27:54;;;;;;;49.58;46.97;;;;;;;17.32;41.86;102480.16;5032654;28;20044;-68
2023/05/19 02:30:19;;;;;;;48.50;45.63;;;;;;;17.30;42.30;102479.56;5033122;28;20120;-67
2023/05/19 02:32:45;;;;;;;49.00;46.45;;;;;;;17.28;42.47;102485.28;5031911;28;20116;-67
2023/05/19 02:35:11;;;;;;;47.95;45.65;;;;;;;17.26;42.32;102481.13;5032027;28;20406;-67
2023/05/19 02:37:37;;;;;;;49.28;46.67;;;;;;;17.23;42.35;102471.53;5029225;28;20034;-67
2023/05/19 02:40:03;;;;;;;48.50;45.85;;;;;;;17.20;42.34;102474.75;4999855;28;20064;-67
2023/05/19 02:42:28;;;;;;;48.60;46.00;;;;;;;17.18;42.53;102474.16;5034128;28;20428;-67
2023/05/19 02:44:54;;;;;;;48.28;45.78;;;;;;;17.17;42.35;102466.25;5032862;28;20090;-68
2023/05/19 02:47:19;;;;;;;51.47;48.70;;;;;;;17.14;42.49;102466.72;5032932;28;20052;-68
2023/05/19 02:49:45;;;;;;;48.15;45.20;;;;;;;17.12;42.44;102471.59;5014078;28;20034;-69
2023/05/19 02:52:11;;;;;;;47.75;45.25;;;;;;;17.08;42.32;102474.84;5014406;28;20033;-68
2023/05/19 02:54:36;;;;;;;48.03;45.33;;;;;;;17.06;42.44;102476.97;5029930;28;20117;-68
2023/05/19 02:57:02;;;;;;;47.67;44.88;;;;;;;17.03;42.36;102466.53;5032481;28;20029;-68
2023/05/19 02:59:27;;;;;;;48.90;46.20;;;;;;;17.01;42.40;102471.41;5023105;28;20482;-68
2023/05/19 03:02:01;;;;;;;51.20;47.85;;;;;;;16.98;42.41;102466.41;5018165;28;20048;-68
2023/05/19 03:04:28;;;;;;;47.58;44.88;;;;;;;16.97;42.47;102469.41;5025298;28;20033;-68
2023/05/19 03:06:53;;;;;;;48.55;45.88;;;;;;;16.93;42.54;102466.31;5024277;28;20037;-68
2023/05/19 03:09:19;;;;;;;47.72;44.92;;;;;;;16.92;42.58;102461.13;5015157;28;20045;-68
2023/05/19 03:11:45;;;;;;;49.03;46.30;;;;;;;16.89;42.42;102467.91;5032702;28;20079;-67
2023/05/19 03:14:13;;;;;;;47.08;44.78;;;;;;;16.87;42.43;102464.56;5012945;28;20061;-67
2023/05/19 03:16:42;;;;;;;46.53;44.03;;;;;;;16.84;42.73;102465.88;5013878;28;20025;-68
2023/05/19 03:19:08;;;;;;;46.65;44.05;;;;;;;16.81;42.46;102466.38;5021855;28;20073;-68
2023/05/19 03:21:34;;;;;;;46.85;44.25;;;;;;;16.80;42.50;102469.34;5017780;28;20473;-67
2023/05/19 03:24:00;;;;;;;46.30;43.38;;;;;;;16.77;42.59;102472.53;5021126;28;20042;-67
2023/05/19 03:26:26;;;;;;;47.90;45.30;;;;;;;16.74;42.68;102464.84;5013191;28;20038;-68
2023/05/19 03:28:51;;;;;;;48.33;45.47;;;;;;;16.72;42.88;102472.44;5028293;28;20535;-67
2023/05/19 03:31:17;;;;;;;47.63;44.92;;;;;;;16.69;42.65;102473.75;5028608;28;20120;-68
2023/05/19 03:33:42;;;;;;;47.10;44.70;;;;;;;16.66;42.69;102469.59;5013709;28;20060;-67
2023/05/19 03:36:08;;;;;;;45.88;43.33;;;;;;;16.65;42.80;102476.09;5012998;28;20072;-69
2023/05/19 03:38:34;;;;;;;47.25;44.55;;;;;;;16.62;42.95;102476.59;5019617;28;20393;-68
2023/05/19 03:40:59;;;;;;;45.58;43.15;;;;;;;16.60;42.75;102477.91;5023579;28;20037;-68
2023/05/19 03:43:24;;;;;;;47.25;44.67;;;;;;;16.58;42.81;102466.41;5013362;28;20042;-68
2023/05/19 03:45:50;;;;;;;48.00;45.35;;;;;;;16.55;42.91;102470.44;5013181;28;20462;-68
2023/05/19 03:48:15;;;;;;;45.72;43.33;;;;;;;16.52;42.71;102470.94;5035673;28;20108;-67
2023/05/19 03:50:43;;;;;;;47.63;44.97;;;;;;;16.50;43.07;102470.31;5034325;28;20095;-70
2023/05/19 03:53:08;;;;;;;46.17;43.72;;;;;;;16.48;42.87;102468.91;5031730;28;20059;-67
2023/05/19 03:55:36;;;;;;;45.63;43.15;;;;;;;16.46;43.28;102469.16;5032951;28;20462;-67
2023/05/19 03:58:01;;;;;;;45.80;43.28;;;;;;;16.42;43.14;102460.63;5033147;28;20194;-67
2023/05/19 04:00:27;;;;;;;43.15;40.95;;;;;;;16.41;43.18;102469.06;5026730;28;20457;-68
2023/05/19 04:02:52;;;;;;;46.70;44.20;;;;;;;16.40;42.91;102470.97;5013187;28;20026;-68
2023/05/19 04:05:18;;;;;;;46.90;44.40;;;;;;;16.37;43.03;102474.16;5024705;28;20539;-69
2023/05/19 04:07:45;;;;;;;47.03;44.55;;;;;;;16.34;43.37;102463.72;5042370;28;20462;-67
2023/05/19 04:10:11;;;;;;;46.85;44.25;;;;;;;16.33;43.13;102470.25;5018297;28;20517;-67
2023/05/19 04:12:36;;;;;;;46.10;42.60;;;;;;;16.30;43.06;102469.88;5032705;28;20034;-67
2023/05/19 04:15:02;;;;;;;46.22;43.83;;;;;;;16.28;43.19;102467.41;5045268;28;20540;-67
2023/05/19 04:17:28;;;;;;;45.17;42.35;;;;;;;16.26;43.53;102472.28;5028226;28;20462;-67
2023/05/19 04:19:53;;;;;;;44.20;41.95;;;;;;;16.23;43.20;102473.59;5016228;28;20521;-68
2023/05/19 04:22:19;;;;;;;41.95;39.78;;;;;;;16.21;43.12;102474.91;5021979;28;20026;-67
2023/05/19 04:24:45;;;;;;;42.35;40.05;;;;;;;16.19;43.59;102479.75;5035320;28;20049;-66
2023/05/19 04:27:11;;;;;;;44.75;42.00;;;;;;;16.16;43.22;102470.16;5012163;28;20084;-68
2023/05/19 04:29:37;;;;;;;44.80;41.92;;;;;;;16.14;43.50;102471.44;5030579;28;20127;-67
2023/05/19 04:32:06;;;;;;;44.50;42.00;;;;;;;16.13;43.44;102473.34;5022803;28;20041;-67
2023/05/19 04:34:32;;;;;;;;;;;;;;;16.11;43.59;102475.47;5031438;28;20038;-67
2023/05/19 04:36:58;;;;;;;43.38;41.10;;;;;;;16.07;43.53;102471.56;5011837;28;19920;-67
2023/05/19 04:39:23;;;;;;;42.42;39.95;;;;;;;16.06;43.59;102471.81;5012152;28;20120;-67
2023/05/19 04:41:49;;;;;;;43.63;41.33;;;;;;;16.03;43.53;102475.84;5030064;28;20058;-67
2023/05/19 04:44:16;;;;;;;44.42;41.50;;;;;;;16.01;43.75;102473.34;5031091;28;20096;-67
2023/05/19 04:46:43;;;;;;;41.15;39.05;;;;;;;15.99;43.84;102478.19;5012424;28;20132;-67
2023/05/19 04:49:11;;;;;;;44.60;41.85;;;;;;;15.98;43.79;102478.47;5011169;28;20417;-67
2023/05/19 04:51:40;;;;;;;43.58;40.90;;;;;;;15.94;43.53;102478.09;5017294;28;20033;-68
2023/05/19 04:54:05;;;;;;;;;;;;;;;15.94;43.68;102479.97;5012557;28;20030;-67
2023/05/19 04:56:30;;;;;;;40.58;38.45;;;;;;;15.91;43.71;102483.19;5013983;28;19913;-68
2023/05/19 04:58:56;;;;;;;44.65;41.53;;;;;;;15.89;43.64;102485.31;5025295;28;20422;-67
2023/05/19 05:01:24;;;;;;;42.45;40.10;;;;;;;15.88;43.92;102486.38;5026856;28;20033;-68
2023/05/19 05:03:53;;;;;;;42.75;40.13;;;;;;;15.87;43.86;102484.72;5039132;28;20036;-67
2023/05/19 05:06:19;;;;;;;44.50;42.05;;;;;;;15.85;44.01;102478.66;5012816;28;20030;-69
2023/05/19 05:08:45;;;;;;;44.55;41.83;;;;;;;15.84;43.69;102482.47;5024641;28;20053;-70
2023/05/19 05:11:11;;;;;;;46.17;43.42;;;;;;;15.83;44.02;102486.25;5029639;28;20370;-69
2023/05/19 05:13:36;;;;;;;44.00;41.30;;;;;;;15.82;43.83;102490.88;5028760;28;20123;-67
2023/05/19 05:16:05;;;;;;;43.28;40.92;;;;;;;15.80;43.77;102495.75;5011306;28;20456;-69
2023/05/19 05:18:32;;;;;;;44.20;40.95;;;;;;;15.80;44.13;102490.28;5016491;28;20033;-68
2023/05/19 05:20:57;;;;;;;44.45;41.22;;;;;;;15.77;43.92;102499.75;5012338;28;20045;-68
2023/05/19 05:23:26;;;;;;;42.70;40.20;;;;;;;15.78;44.08;102495.16;5032137;28;20508;-67
2023/05/19 05:25:52;;;;;;;43.42;41.08;;;;;;;15.77;43.99;102496.19;5032148;28;20052;-68
2023/05/19 05:28:17;;;;;;;42.15;39.88;;;;;;;15.74;43.89;102493.94;5023210;28;20442;-67
2023/05/19 05:30:43;;;;;;;44.13;41.70;;;;;;;15.74;44.23;102497.47;5029931;28;20033;-69
2023/05/19 05:33:09;;;;;;;45.45;42.90;;;;;;;15.72;44.06;102498.78;5029999;28;20108;-68
2023/05/19 05:35:35;;;;;;;44.78;41.83;;;;;;;15.73;44.10;102495.00;5036998;28;20470;-68
2023/05/19 05:38:01;;;;;;;42.67;40.42;;;;;;;15.71;44.07;102494.41;5023199;28;20477;-68
2023/05/19 05:40:26;;;;;;;44.38;41.75;;;;;;;15.70;44.29;102495.47;5030388;28;20080;-68
2023/05/19 05:42:54;;;;;;;42.75;40.28;;;;;;;15.69;44.31;102501.94;5011347;28;20050;-68
2023/05/19 05:45:21;;;;;;;43.20;40.55;;;;;;;15.69;44.22;102500.09;5024040;28;20026;-68
2023/05/19 05:47:47;;;;;;;43.08;40.53;;;;;;;15.70;44.37;102495.47;5030402;28;20045;-68
2023/05/19 05:50:13;;;;;;;46.05;43.33;;;;;;;15.70;44.09;102500.91;5014431;28;20041;-67
2023/05/19 05:52:40;;;;;;;44.58;41.70;;;;;;;15.70;44.21;102509.09;5015940;28;20118;-68
2023/05/19 05:55:06;;;;;;;46.53;43.70;;;;;;;15.70;44.42;102503.63;5036973;28;20758;-67
2023/05/19 05:57:34;;;;;;;45.38;43.08;;;;;;;15.72;44.31;102504.22;5015071;28;20045;-69
2023/05/19 06:00:00;;;;;;;44.25;41.60;;;;;;;15.72;44.42;102504.22;5015006;28;20038;-68
2023/05/19 06:02:26;;;;;;;41.13;38.50;;;;;;;15.72;44.45;102501.50;5033368;28;20029;-67
2023/05/19 06:04:53;;;;;;;40.45;38.13;;;;;;;15.72;44.14;102509.69;5021552;28;20041;-68
2023/05/19 06:07:18;;;;;;;43.28;40.55;;;;;;;15.71;44.60;102508.84;5014752;28;20069;-67
2023/05/19 06:09:44;;;;;;;46.65;43.83;;;;;;;15.72;44.58;102501.50;5014762;28;20133;-69
2023/05/19 06:12:10;;;;;;;43.83;41.22;;;;;;;15.71;44.48;102497.13;5028316;28;20048;-67
2023/05/19 06:14:35;;;;;;;42.22;39.78;;;;;;;15.72;44.70;102512.41;5040944;28;20033;-67
2023/05/19 06:17:00;;;;;;;43.92;41.22;;;;;;;15.72;44.63;102502.38;5018843;28;20040;-72
2023/05/19 06:19:26;;;;;;;44.45;41.95;;;;;;;15.73;44.72;102506.75;5014927;28;20121;-68
2023/05/19 06:21:51;;;;;;;45.72;42.88;;;;;;;15.73;44.57;102509.47;5033574;28;20037;-67
2023/05/19 06:24:17;;;;;;;44.85;41.92;;;;;;;15.73;44.69;102514.91;5014292;28;20117;-67
2023/05/19 06:26:42;;;;;;;42.42;40.10;;;;;;;15.73;44.71;102520.34;5034304;28;20470;-67
2023/05/19 06:29:07;;;;;;;44.63;41.78;;;;;;;15.74;44.71;102516.56;5032072;28;20040;-68
2023/05/19 06:31:33;;;;;;;42.72;39.85;;;;;;;15.76;44.79;102519.06;5019261;28;20042;-67
2023/05/19 06:33:58;;;;;;;42.35;39.95;;;;;;;15.77;44.81;102517.97;5014078;28;20394;-68
2023/05/19 06:36:24;;;;;;;44.55;42.05;;;;;;;15.75;44.61;102518.25;5035393;28;20037;-67
2023/05/19 06:38:49;;;;;;;45.95;43.20;;;;;;;15.76;44.62;102521.78;5050618;28;20079;-67
2023/05/19 06:41:15;;;;;;;44.00;41.45;;;;;;;15.74;44.92;102515.72;5046447;28;20506;-67
2023/05/19 06:43:41;;;;;;;44.40;41.97;;;;;;;15.74;45.11;102515.72;5014491;28;20034;-67
2023/05/19 06:46:06;;;;;;;43.50;40.17;;;;;;;15.73;44.86;102504.00;5022134;28;20037;-67
2023/05/19 06:48:32;;;;;;;42.75;39.92;;;;;;;15.74;45.10;102515.72;5034272;28;20482;-67
2023/05/19 06:50:57;;;;;;;42.38;39.97;;;;;;;15.75;45.34;102503.78;5032054;28;20416;-68
2023/05/19 06:53:23;;;;;;;39.67;37.55;;;;;;;15.76;45.09;102510.88;5047875;28;20383;-68
2023/05/19 06:55:51;;;;;;;41.95;39.30;;;;;;;15.78;45.28;102503.31;5039831;28;20381;-68
2023/05/19 06:58:16;;;;;;;43.65;40.90;;;;;;;15.80;45.15;102506.63;5046813;28;20053;-67
2023/05/19 07:00:42;;;;;;;44.05;41.55;;;;;;;15.80;45.51;102512.09;5032500;28;20064;-68
2023/05/19 07:03:08;;;;;;;44.13;41.58;;;;;;;15.82;45.26;102509.13;5036717;28;20431;-68
2023/05/19 07:05:33;;;;;;;44.78;41.67;;;;;;;15.83;45.40;102511.63;5018926;28;20038;-68
2023/05/19 07:07:59;;;;;;;42.25;40.05;;;;;;;15.85;45.28;102508.63;5041512;28;20119;-68
2023/05/19 07:10:24;;;;;;;43.47;40.85;;;;;;;15.88;45.61;102505.47;5050636;28;20060;-69
2023/05/19 07:12:50;;;;;;;43.30;40.40;;;;;;;15.91;45.61;102508.53;5023638;28;20033;-68
2023/05/19 07:15:15;;;;;;;44.42;41.95;;;;;;;15.94;45.75;102501.78;5022110;28;20061;-70
2023/05/19 07:17:40;;;;;;;46.50;43.55;;;;;;;15.98;45.47;102505.72;5029126;28;20078;-69
2023/05/19 07:20:08;;;;;;;47.28;44.15;;;;;;;16.01;45.76;102511.50;5044041;28;20467;-74
2023/05/19 07:22:34;;;;;;;43.22;40.00;;;;;;;16.04;45.64;102509.38;5015132;28;20088;-69
2023/05/19 07:25:00;;;;;;;44.33;41.92;;;;;;;16.07;45.68;102501.56;5029670;28;20478;-68
2023/05/19 07:27:25;;;;;;;44.00;41.30;;;;;;;16.10;46.05;102503.81;5014779;28;20124;-68
2023/05/19 07:29:51;;;;;;;46.00;43.03;;;;;;;16.13;45.85;102503.34;5031593;28;20161;-69
2023/05/19 07:32:16;;;;;;;46.17;43.38;;;;;;;16.17;45.95;102495.50;5032911;28;20147;-68
2023/05/19 07:34:42;;;;;;;44.17;41.53;;;;;;;16.20;45.81;102498.59;5029099;28;20083;-68
2023/05/19 07:37:07;;;;;;;43.92;41.53;;;;;;;16.24;46.27;102498.94;5030889;28;20034;-68
2023/05/19 07:39:34;;;;;;;44.85;41.45;;;;;;;16.29;46.17;102493.59;5027798;28;20061;-68
2023/05/19 07:42:00;;;;;;;45.63;42.90;;;;;;;16.33;46.10;102489.34;5025171;28;20060;-68
2023/05/19 07:44:26;;;;;;;47.20;43.80;;;;;;;16.38;46.31;102491.38;5013118;28;20033;-68
2023/05/19 07:46:52;;;;;;;44.85;42.08;;;;;;;16.43;46.45;102491.47;5025380;28;20121;-68
2023/05/19 07:49:17;;;;;;;46.10;43.63;;;;;;;16.48;46.53;102498.91;5040125;28;20047;-69
2023/05/19 07:51:43;;;;;;;46.08;43.47;;;;;;;16.51;46.73;102491.09;5039234;28;20030;-66
2023/05/19 07:54:08;;;;;;;46.65;44.03;;;;;;;16.56;46.70;102484.94;5032007;28;20397;-67
2023/05/19 07:56:34;;;;;;;48.35;45.65;;;;;;;16.60;46.72;102489.63;5028617;28;20044;-68
2023/05/19 07:58:59;;;;;;;47.95;45.33;;;;;;;16.65;46.59;102484.28;5016607;28;20036;-68
2023/05/19 08:01:25;;;;;;;47.28;44.67;;;;;;;16.72;46.11;102492.34;5030655;28;20061;-68
2023/05/19 08:03:50;;;;;;;45.75;43.15;;;;;;;16.78;46.48;102485.13;5042113;28;20041;-68
2023/05/19 08:06:16;;;;;;;46.47;44.10;;;;;;;16.84;46.71;102490.44;5037633;28;20098;-69
2023/05/19 08:08:41;;;;;;;47.20;44.60;;;;;;;16.91;46.71;102482.13;5018403;28;20076;-70
2023/05/19 08:11:07;;;;;;;50.95;47.95;;;;;;;16.98;46.41;102473.78;5035293;28;20034;-70
2023/05/19 08:13:33;;;;;;;47.30;44.88;;;;;;;17.05;46.72;102474.47;5031068;28;20030;-70
2023/05/19 08:15:59;;;;;;;50.13;47.45;;;;;;;17.11;46.64;102476.25;5034608;28;20044;-69
2023/05/19 08:18:27;;;;;;;49.35;46.65;;;;;;;17.19;46.36;102477.75;5035487;28;20041;-69
2023/05/19 08:20:53;;;;;;;48.80;46.25;;;;;;;17.26;46.47;102478.41;5025242;28;20132;-68
2023/05/19 08:23:18;;;;;;;52.17;49.03;;;;;;;17.34;46.12;102471.72;5012109;28;20446;-68
2023/05/19 08:25:44;;;;;;;48.28;45.50;;;;;;;17.42;46.37;102472.16;5012592;28;20049;-68
2023/05/19 08:28:10;;;;;;;51.13;47.70;;;;;;;17.48;46.54;102465.69;5040062;28;20044;-69
2023/05/19 08:30:35;;;;;;;50.33;47.72;;;;;;;17.57;46.11;102468.84;5026845;28;20034;-69
2023/05/19 08:33:01;;;;;;;51.33;48.05;;;;;;;17.63;46.55;102458.84;5012320;28;20036;-68
2023/05/19 08:35:27;;;;;;;50.50;47.70;;;;;;;17.72;46.30;102466.38;5018410;28;20397;-68
2023/05/19 08:37:52;;;;;;;50.85;47.83;;;;;;;17.81;46.35;102458.59;5015411;28;20026;-68
2023/05/19 08:40:19;;;;;;;50.08;47.40;;;;;;;17.89;45.86;102460.09;5031658;28;20083;-68
2023/05/19 08:42:45;;;;;;;48.03;45.63;;;;;;;17.97;46.56;102453.38;5025892;28;20034;-68
2023/05/19 08:45:11;;;;;;;50.13;47.60;;;;;;;18.03;46.46;102455.13;5033940;28;20036;-69
2023/05/19 08:47:36;;;;;;;50.75;47.80;;;;;;;18.12;46.12;102451.69;5027331;28;20033;-68
2023/05/19 08:50:08;;;;;;;53.60;50.58;;;;;;;18.22;45.82;102445.56;5011217;28;20080;-68
2023/05/19 08:52:56;;;;;;;51.83;48.75;;;;;;;18.33;46.04;102449.25;5012075;28;20030;-68
2023/05/19 08:55:32;;;;;;;52.25;49.33;;;;;;;18.43;46.01;102443.09;5019845;28;20033;-68
2023/05/19 08:58:00;;;;;;;48.90;46.50;;;;;;;18.52;46.67;102445.13;5022112;28;20036;-68
2023/05/19 09:00:26;;;;;;;54.70;51.45;;;;;;;18.61;46.39;102445.50;5023574;28;20033;-68
2023/05/19 09:02:53;;;;;;;57.63;54.42;;;;;;;18.70;45.59;102441.22;5022045;28;20045;-68
2023/05/19 09:05:19;;;;;;;53.63;50.85;;;;;;;18.80;45.93;102446.03;5021826;28;20036;-67
2023/05/19 09:07:45;;;;;;;54.65;51.65;;;;;;;18.90;45.69;102443.41;5027408;28;20374;-68
2023/05/19 09:10:15;;;;;;;57.10;54.10;;;;;;;19.00;44.40;102443.50;5028278;28;20050;-68
2023/05/19 09:12:47;;;;;;;55.92;52.95;;;;;;;19.11;44.04;102443.59;5011267;28;20045;-68
2023/05/19 09:15:16;;;;;;;60.08;56.65;;;;;;;19.17;44.14;102437.91;5015951;28;20096;-68
2023/05/19 09:17:43;;;;;;;57.35;54.10;;;;;;;19.28;44.28;102438.84;5019738;28;20105;-68
2023/05/19 09:20:11;;;;;;;58.90;55.83;;;;;;;19.40;43.69;102438.66;5027745;28;20129;-68
2023/05/19 09:22:46;;;;;;;59.40;56.03;;;;;;;19.48;43.69;102432.72;5017923;28;20044;-68
2023/05/19 09:25:21;;;;;;;57.85;54.95;;;;;;;19.58;43.92;102430.06;5024690;28;20450;-68
2023/05/19 09:27:48;;;;;;;58.95;55.67;;;;;;;19.66;43.79;102426.00;5032264;28;20080;-69
2023/05/19 09:30:17;;;;;;;59.47;56.58;;;;;;;19.74;43.76;102425.53;5029719;28;20033;-68
2023/05/19 09:32:43;;;;;;;62.90;59.70;;;;;;;19.85;44.30;102418.19;5027682;28;20038;-68
2023/05/19 09:35:11;;;;;;;61.95;58.83;;;;;;;19.94;43.76;102430.34;5028769;28;20037;-69
2023/05/19 09:37:39;;;;;;;62.77;59.43;;;;;;;20.03;44.22;102420.53;5030486;28;20035;-68
2023/05/19 09:40:08;;;;;;;60.10;57.10;;;;;;;20.12;44.76;102420.84;5035666;28;20381;-69
2023/05/19 09:42:36;;;;;;;61.72;58.72;;;;;;;20.21;44.72;102426.63;5040483;28;20036;-68
2023/05/19 09:45:02;;;;;;;;;;;;;;;20.29;44.47;102426.13;5031401;28;20069;-68
2023/05/19 09:47:33;;;;;;;60.60;57.50;;;;;;;20.37;44.19;102422.06;5021892;28;19909;-66
2023/05/19 09:49:58;;;;;;;62.03;58.72;;;;;;;20.45;43.49;102425.09;5033904;28;20087;-70
2023/05/19 09:52:24;;;;;;;61.97;59.00;;;;;;;20.55;43.68;102426.28;5029460;28;20034;-68
2023/05/19 09:54:50;;;;;;;64.05;60.85;;;;;;;20.62;44.39;102427.66;5015748;28;20493;-68
2023/05/19 09:57:16;;;;;;;67.65;64.05;;;;;;;20.70;42.56;102421.66;5015345;28;20048;-67
2023/05/19 09:59:42;;;;;;;64.55;61.45;;;;;;;20.78;43.18;102423.03;5032523;28;20120;-68
2023/05/19 10:02:15;;;;;;;66.53;62.72;;;;;;;20.87;43.58;102415.94;5035205;28;20044;-68
2023/05/19 10:04:41;;;;;;;66.72;63.55;;;;;;;20.96;43.34;102413.47;5033551;28;20029;-68
2023/05/19 10:07:08;;;;;;;66.93;63.83;;;;;;;21.05;42.17;102422.81;5047409;28;20386;-68
2023/05/19 10:09:35;;;;;;;68.40;64.97;;;;;;;21.12;43.17;102420.63;5025682;28;20062;-68
2023/05/19 10:12:02;;;;;;;68.75;65.32;;;;;;;21.22;42.64;102424.47;5038807;28;20095;-68
2023/05/19 10:14:28;;;;;;;71.32;67.82;;;;;;;21.30;42.45;102418.47;5023962;28;20184;-68
2023/05/19 10:16:58;;;;;;;69.78;66.28;;;;;;;21.38;42.45;102416.00;5035385;28;20029;-68
2023/05/19 10:19:27;;;;;;;72.90;69.28;;;;;;;21.46;42.46;102416.56;5015111;28;20037;-74
2023/05/19 10:21:52;;;;;;;70.80;67.10;;;;;;;21.54;40.43;102414.06;5026178;28;20025;-68
2023/05/19 10:24:20;;;;;;;69.72;66.47;;;;;;;21.61;40.25;102413.78;5018851;28;20518;-68
2023/05/19 10:27:00;;;;;;;69.15;65.15;;;;;;;21.68;41.93;102408.03;5033888;28;20044;-68
2023/05/19 10:29:28;;;;;;;71.75;68.45;;;;;;;21.75;42.63;102406.63;5033569;28;20080;-70
2023/05/19 10:31:55;;;;;;;;;;;;;;;21.81;43.65;102402.75;5033315;28;20029;-68
2023/05/19 10:35:02;;;;;;;67.50;64.20;;;;;;;21.89;43.19;102401.34;5023565;28;19913;-67
2023/05/19 10:37:33;;;;;;;70.95;67.57;;;;;;;21.97;43.78;102400.81;5004746;28;20052;-68
2023/05/19 10:39:59;;;;;;;70.32;66.95;;;;;;;22.04;43.08;102398.56;5011798;28;20057;-69
2023/05/19 10:42:35;;;;;;;73.80;70.10;;;;;;;22.14;42.81;102403.22;5023670;28;20115;-69
2023/05/19 10:45:07;;;;;;;74.93;71.20;;;;;;;22.23;41.45;102403.50;5032819;28;20121;-67
2023/05/19 10:47:33;;;;;;;75.75;71.90;;;;;;;22.30;40.85;102403.19;5033526;28;20061;-67
2023/05/19 10:50:05;;;;;;;73.47;69.80;;;;;;;22.35;41.01;102390.25;5033002;28;20101;-68
2023/05/19 10:52:36;;;;;;;73.80;70.13;;;;;;;22.42;41.96;102389.91;5023909;28;20034;-69
2023/05/19 10:55:01;;;;;;;76.50;72.70;;;;;;;22.49;42.27;102390.44;5022535;28;20036;-68
2023/05/19 10:57:29;;;;;;;74.38;70.97;;;;;;;22.57;41.05;102389.81;5035618;28;20373;-76
2023/05/19 10:59:56;;;;;;;74.87;71.47;;;;;;;22.63;41.55;102390.66;5033229;28;20072;-68
2023/05/19 11:02:42;;;;;;;77.78;73.70;;;;;;;22.70;40.71;102385.63;5029752;28;20799;-69
2023/05/19 11:05:17;;;;;;;80.07;76.47;;;;;;;22.75;40.92;102385.59;5041969;28;20128;-67
2023/05/19 11:08:03;;;;;;;80.25;76.50;;;;;;;22.82;41.81;102380.59;5013857;28;20026;-68
2023/05/19 11:10:28;;;;;;;83.60;79.60;;;;;;;22.87;42.16;102380.56;5013488;28;20054;-70
2023/05/19 11:12:56;;;;;;;80.18;76.20;;;;;;;22.95;41.70;102373.59;5027419;28;20121;-68